»·PEaware :: N4922Z 54CL-KBLH

N4922Z :: 54CL-KBLH

FLIGHT INFORMATION

Flight Status: Arrived
Operator: Privately registered:
United States
More flights under this callsign
Pilot: William N. (15320)
Aircraft: MITSUBISHI MU-2 MARQUISE
(MU2)
More flights by this aircraft type
Origin: 54CL Lake Riverside Estates
United States
Destination: KBLH Blythe
United States
More flights between these airports :: More routes between these airports
Route: DIRECT
File this flight plan on PilotEdge
Remarks:
Altitude:
(Current/Filed)
7,500ft
Speed:
(Current/Filed)
270kts
Departed: 08-Jun-18 11:03 AM
Arrived: 08-Jun-18 11:39 AM
Distance/Time
Traveled:
104nm/0:36
Distance/Time
To Go:
Arrived

Flight Plot

Page will automatically refresh every two minutes.

Flight plan parsing failed; only flown route is shown


Map Options




Map Legend


Flown Route
Filed Route
Departure Airport
Arrival Airport
Navaid (VOR, NDB)
Fix

Horizontal Profiles

Position Reports

Time Latitude Longitude Heading Altitude Ground
Speed
08-Jun-18 11:02 33.523099 -116.800715 104 3386ft 0kts
08-Jun-18 11:03 33.519917 -116.790645 114 3452ft 129kts
08-Jun-18 11:04 33.500160 -116.743174 154 5429ft 190kts
08-Jun-18 11:05 33.446509 -116.731047 166 7418ft 231kts
08-Jun-18 11:06 33.383079 -116.705088 160 7483ft 249kts
08-Jun-18 11:07 33.328891 -116.679163 159 7482ft 256kts
08-Jun-18 11:08 33.262372 -116.646759 158 7524ft 259kts
08-Jun-18 11:09 33.202081 -116.617958 161 7490ft 264kts
08-Jun-18 11:10 33.149968 -116.562380 96 7308ft 279kts
08-Jun-18 11:11 33.180340 -116.482992 62 7666ft 276kts
08-Jun-18 11:12 33.214614 -116.399675 62 7377ft 282kts
08-Jun-18 11:13 33.250515 -116.318656 59 7247ft 282kts
08-Jun-18 11:14 33.290562 -116.240085 59 7395ft 270kts
08-Jun-18 11:15 33.335578 -116.167405 43 7340ft 279kts
08-Jun-18 11:16 33.391525 -116.103303 45 6757ft 263kts
08-Jun-18 11:17 33.439325 -116.042047 47 7054ft 225kts
08-Jun-18 11:18 33.479124 -115.988315 47 7370ft 220kts
08-Jun-18 11:19 33.519495 -115.930623 49 7359ft 223kts
08-Jun-18 11:20 33.558968 -115.871093 52 7250ft 231kts
08-Jun-18 11:21 33.598072 -115.809741 60 7241ft 230kts
08-Jun-18 11:22 33.612753 -115.735159 82 7136ft 232kts
08-Jun-18 11:23 33.624259 -115.660041 83 7164ft 231kts
08-Jun-18 11:24 33.632900 -115.585036 88 7269ft 225kts
08-Jun-18 11:25 33.638107 -115.504266 88 7779ft 262kts
08-Jun-18 11:26 33.641187 -115.412686 91 7983ft 278kts
08-Jun-18 11:27 33.640489 -115.321971 95 6631ft 275kts
08-Jun-18 11:28 33.623505 -115.240807 110 4641ft 259kts
08-Jun-18 11:29 33.599684 -115.158573 109 3114ft 256kts
08-Jun-18 11:30 33.587954 -115.078957 91 2307ft 233kts
08-Jun-18 11:31 33.576537 -115.006698 104 2195ft 222kts
08-Jun-18 11:32 33.570571 -114.931694 95 2230ft 233kts
08-Jun-18 11:33 33.571629 -114.858107 86 1834ft 209kts
08-Jun-18 11:34 33.580070 -114.796687 66 1710ft 172kts
08-Jun-18 11:35 33.586421 -114.740369 90 1929ft 175kts
08-Jun-18 11:36 33.585912 -114.685118 86 1915ft 141kts
08-Jun-18 11:37 33.600898 -114.649625 0 1663ft 130kts
08-Jun-18 11:38 33.616427 -114.682892 271 872ft 150kts
08-Jun-18 11:39 33.616574 -114.721993 268 394ft 30kts
08-Jun-18 11:40 33.615170 -114.722436 96 394ft 11kts
08-Jun-18 11:41 33.615137 -114.717696 85 394ft 0kts
08-Jun-18 11:42 33.614864 -114.714684 133 394ft 12kts
08-Jun-18 11:43 33.614305 -114.713867 359 393ft 0kts
08-Jun-18 11:44 33.614305 -114.713867 359 393ft 0kts
08-Jun-18 11:45 33.614305 -114.713867 359 393ft 0kts
08-Jun-18 11:46 33.614305 -114.713867 359 393ft 0kts
08-Jun-18 11:47 33.614305 -114.713867 359 393ft 0kts
08-Jun-18 11:48 33.614305 -114.713867 359 393ft 0kts
08-Jun-18 11:49 33.614305 -114.713867 359 393ft 0kts
08-Jun-18 11:50 33.614305 -114.713867 359 393ft 0kts
08-Jun-18 11:51 33.614305 -114.713867 359 393ft 0kts
08-Jun-18 11:52 33.614305 -114.713867 359 393ft 0kts
08-Jun-18 11:53 33.614305 -114.713867 359 393ft 0kts

Navigation Log

Ident Type
Flight plan parsing failed, navigation log unavailable